Terminal Aerodrome Forecast
Issued by NWS

Home | Current Version | Previous Version | Text Only | Print | Product List | Glossary On
Versions: 1 2 3 4 5 6 7 8 9 10 11 12 13
639
FTUS45 KRIW 302339
TAFJAC
TAF
KJAC 302339Z 3100/3124 VRB11G23KT P6SM VCTS SCT070CB BKN100
     FM310100 21008KT P6SM VCSH SCT090 BKN120
     FM310600 VRB06KT P6SM FEW110 SCT200
     FM312000 20015G22KT P6SM VCTS SCT100CB
      AMD LTD TO CLD VIS AND WIND=

USA.gov is the U.S. government's official web portal to all federal, state and local government web resources and services.